createdAt,value
2022-08-11T00:01:23.333Z,474.13
2022-08-11T00:03:57.119Z,460.40
2022-08-11T00:06:28.291Z,638.47
2022-08-11T00:08:57.924Z,434.30
2022-08-11T00:11:34.817Z,625.10
2022-08-11T00:14:03.726Z,490.77
2022-08-11T00:16:33.851Z,521.27
2022-08-11T00:19:02.755Z,367.87
2022-08-11T00:22:01.851Z,570.20
2022-08-11T00:24:21.122Z,650.63
2022-08-11T00:26:50.353Z,615.00
2022-08-11T00:29:19.052Z,625.07
2022-08-11T00:31:51.749Z,722.13
2022-08-11T00:34:22.836Z,388.80
2022-08-11T00:36:54.987Z,562.97
2022-08-11T00:39:28.971Z,541.93
2022-08-11T00:42:15.463Z,605.83
2022-08-11T00:45:01.900Z,510.57
2022-08-11T00:47:56.330Z,630.17
2022-08-11T00:50:47.171Z,652.17
2022-08-11T00:53:36.595Z,648.57
2022-08-11T00:56:40.187Z,657.83
2022-08-11T00:59:36.080Z,620.57
2022-08-11T01:02:19.808Z,706.73
2022-08-11T01:05:12.754Z,671.57
2022-08-11T01:08:14.278Z,542.00
2022-08-11T01:11:27.209Z,618.47
2022-08-11T01:14:26.896Z,547.10
2022-08-11T01:18:08.519Z,534.90
2022-08-11T01:21:10.665Z,509.47
2022-08-11T01:24:41.817Z,641.03
2022-08-11T01:27:30.169Z,632.17
2022-08-11T01:30:15.166Z,654.80
2022-08-11T01:33:20.041Z,590.03
2022-08-11T01:36:32.075Z,647.97
2022-08-11T01:39:29.714Z,634.20
2022-08-11T01:42:48.335Z,619.87
2022-08-11T01:45:28.840Z,599.70
2022-08-11T01:48:03.930Z,650.37
2022-08-11T01:51:03.146Z,641.83
2022-08-11T01:53:48.523Z,575.63
2022-08-11T01:56:36.796Z,616.53
2022-08-11T01:59:13.117Z,599.67
2022-08-11T02:01:58.267Z,640.93
2022-08-11T02:04:34.304Z,619.73
2022-08-11T02:07:10.837Z,675.83
2022-08-11T02:10:01.883Z,644.07
2022-08-11T02:12:52.232Z,631.73
2022-08-11T02:15:28.994Z,596.43
2022-08-11T02:18:06.726Z,588.23
2022-08-11T02:21:02.664Z,602.50
2022-08-11T02:24:06.642Z,656.93
2022-08-11T02:26:41.246Z,590.17
2022-08-11T02:29:18.001Z,650.60
2022-08-11T02:32:24.094Z,485.30
2022-08-11T02:35:00.836Z,595.00
2022-08-11T02:37:38.146Z,594.70
2022-08-11T02:40:20.941Z,318.37
2022-08-11T02:43:05.662Z,607.30
2022-08-11T02:45:46.225Z,297.90
2022-08-11T02:48:43.569Z,606.80
2022-08-11T02:51:22.341Z,592.87
2022-08-11T02:53:57.864Z,576.70
2022-08-11T02:56:38.655Z,642.23
2022-08-11T02:59:33.506Z,579.70
2022-08-11T03:02:23.415Z,553.77
2022-08-11T03:05:05.121Z,267.40
2022-08-11T03:07:40.999Z,634.10
2022-08-11T03:10:21.721Z,699.63
2022-08-11T03:13:15.686Z,603.03
2022-08-11T03:16:10.689Z,577.27
2022-08-11T03:18:46.172Z,636.13
2022-08-11T03:21:21.673Z,516.90
2022-08-11T03:24:01.591Z,508.27
2022-08-11T03:26:38.588Z,534.33
2022-08-11T03:29:13.117Z,617.03
2022-08-11T03:31:56.634Z,662.43
2022-08-11T03:34:27.164Z,643.57
2022-08-11T03:37:34.551Z,654.47
2022-08-11T03:40:14.568Z,608.83
2022-08-11T03:42:49.215Z,645.60
2022-08-11T03:45:26.168Z,617.70
2022-08-11T03:48:08.978Z,575.87
2022-08-11T03:50:56.088Z,608.47
2022-08-11T03:53:45.313Z,625.80
2022-08-11T03:56:49.000Z,572.03
2022-08-11T04:00:02.108Z,532.47
2022-08-11T04:02:55.383Z,605.57
2022-08-11T04:06:03.434Z,556.90
2022-08-11T04:09:13.426Z,643.47
2022-08-11T04:12:36.584Z,599.67
2022-08-11T04:15:50.328Z,578.03
2022-08-11T04:18:53.982Z,372.00
2022-08-11T04:21:45.856Z,606.83
2022-08-11T04:24:41.450Z,587.27
2022-08-11T04:27:37.696Z,592.63
2022-08-11T04:30:16.788Z,537.67
2022-08-11T04:33:12.997Z,594.57
2022-08-11T04:35:51.749Z,642.03
2022-08-11T04:39:00.584Z,634.07
2022-08-11T04:42:10.917Z,615.60
2022-08-11T04:45:13.240Z,636.07
2022-08-11T04:48:11.920Z,591.07
2022-08-11T04:51:17.095Z,611.30
2022-08-11T04:54:16.155Z,572.83
2022-08-11T04:57:06.334Z,591.17
2022-08-11T05:00:24.673Z,671.60
2022-08-11T05:03:28.169Z,577.80
2022-08-11T05:06:33.714Z,458.27
2022-08-11T05:09:29.533Z,612.67
2022-08-11T05:12:15.296Z,631.73
2022-08-11T05:15:09.394Z,640.57
2022-08-11T05:18:14.011Z,617.13
2022-08-11T05:21:09.111Z,625.07
2022-08-11T05:24:00.143Z,664.30
2022-08-11T05:26:49.642Z,654.03
2022-08-11T05:30:03.166Z,578.43
2022-08-11T05:33:00.917Z,628.27
2022-08-11T05:36:01.896Z,710.60
2022-08-11T05:38:49.103Z,567.40
2022-08-11T05:41:39.122Z,554.80
2022-08-11T05:44:25.575Z,565.73
2022-08-11T05:47:13.315Z,528.63
2022-08-11T05:50:00.874Z,644.23
2022-08-11T05:52:55.347Z,576.60
2022-08-11T05:55:52.368Z,621.43
2022-08-11T05:58:41.688Z,620.57
2022-08-11T06:01:11.647Z,550.10
2022-08-11T06:03:59.082Z,642.80
2022-08-11T06:06:29.108Z,585.83
2022-08-11T06:08:58.780Z,626.77
2022-08-11T06:11:43.809Z,626.80
2022-08-11T06:14:14.033Z,568.67
2022-08-11T06:16:42.974Z,678.40
2022-08-11T06:19:14.238Z,636.47
2022-08-11T06:21:47.558Z,663.07
2022-08-11T06:24:17.216Z,577.53
2022-08-11T06:27:11.155Z,563.27
2022-08-11T06:29:51.105Z,650.17
2022-08-11T06:32:26.363Z,528.27
2022-08-11T06:35:05.896Z,612.47
2022-08-11T06:37:46.676Z,622.47
2022-08-11T06:40:27.347Z,604.90
2022-08-11T06:43:02.211Z,627.90
2022-08-11T06:45:35.205Z,651.70
2022-08-11T06:48:06.463Z,638.27
2022-08-11T06:50:54.988Z,556.60
2022-08-11T06:53:23.483Z,640.07
2022-08-11T06:56:09.601Z,571.73
2022-08-11T06:58:57.927Z,644.10
2022-08-11T07:01:47.679Z,555.77
2022-08-11T07:04:25.338Z,437.43
2022-08-11T07:07:40.141Z,565.77
2022-08-11T07:10:54.953Z,616.20
2022-08-11T07:13:45.414Z,558.20
2022-08-11T07:16:24.338Z,605.10
2022-08-11T07:19:17.273Z,478.93
2022-08-11T07:22:05.675Z,586.57
2022-08-11T07:24:59.135Z,569.30
2022-08-11T07:27:54.768Z,563.70
2022-08-11T07:30:23.241Z,582.17
2022-08-11T07:32:53.651Z,531.40
2022-08-11T07:35:25.556Z,458.90
2022-08-11T07:38:02.289Z,637.63
2022-08-11T07:40:33.694Z,624.10
2022-08-11T07:43:02.457Z,624.40
2022-08-11T07:46:03.278Z,534.63
2022-08-11T07:48:49.443Z,605.83
2022-08-11T07:51:37.945Z,559.10
2022-08-11T07:54:15.292Z,572.13
2022-08-11T07:56:54.701Z,638.83
2022-08-11T08:00:03.530Z,428.70
2022-08-11T08:02:48.739Z,581.40
2022-08-11T08:05:36.207Z,623.27
2022-08-11T08:08:23.220Z,599.47
2022-08-11T08:11:08.652Z,590.80
2022-08-11T08:13:56.687Z,641.17
2022-08-11T08:16:42.817Z,649.70
2022-08-11T08:19:13.555Z,524.13
2022-08-11T08:21:45.429Z,587.70
2022-08-11T08:24:14.160Z,515.90
2022-08-11T08:27:03.165Z,624.93
2022-08-11T08:29:53.178Z,649.33
2022-08-11T08:32:22.716Z,603.10
2022-08-11T08:34:52.739Z,599.87
2022-08-11T08:37:45.072Z,503.50
2022-08-11T08:40:11.495Z,582.53
2022-08-11T08:42:45.502Z,571.50
2022-08-11T08:45:18.389Z,548.70
2022-08-11T08:47:59.568Z,529.40
2022-08-11T08:50:47.166Z,629.90
2022-08-11T08:53:19.731Z,632.77
2022-08-11T08:55:48.040Z,580.73
2022-08-11T08:58:17.573Z,677.80
2022-08-11T09:00:48.279Z,564.73
2022-08-11T09:03:41.066Z,528.70
2022-08-11T09:06:04.736Z,551.43
2022-08-11T09:08:33.711Z,512.27
2022-08-11T09:11:20.487Z,610.53
2022-08-11T09:14:04.740Z,527.13
2022-08-11T09:16:39.025Z,613.73
2022-08-11T09:19:08.597Z,609.73
2022-08-11T09:21:48.291Z,553.87
2022-08-11T09:24:35.549Z,564.47
2022-08-11T09:27:07.779Z,552.47
2022-08-11T09:29:37.101Z,501.17
2022-08-11T09:32:07.200Z,404.93
2022-08-11T09:34:37.348Z,580.93
2022-08-11T09:37:54.045Z,526.83
2022-08-11T09:40:33.721Z,616.77
2022-08-11T09:43:22.321Z,599.43
2022-08-11T09:45:52.351Z,571.87
2022-08-11T09:48:22.890Z,552.60
2022-08-11T09:50:52.851Z,554.97
2022-08-11T09:53:36.771Z,559.10
2022-08-11T09:56:30.413Z,524.60
2022-08-11T09:58:59.705Z,496.40
2022-08-11T10:01:31.875Z,526.60
2022-08-11T10:04:04.871Z,566.60
2022-08-11T10:06:54.080Z,540.83
2022-08-11T10:09:25.542Z,420.20
2022-08-11T10:11:58.579Z,596.37
2022-08-11T10:14:45.927Z,603.23
2022-08-11T10:17:16.201Z,614.57
2022-08-11T10:20:04.451Z,523.37
2022-08-11T10:22:52.838Z,522.50
2022-08-11T10:25:39.850Z,560.77
2022-08-11T10:28:28.280Z,602.60
2022-08-11T10:31:13.716Z,529.27
2022-08-11T10:33:59.922Z,569.50
2022-08-11T10:36:31.135Z,548.43
2022-08-11T10:39:01.168Z,581.47
2022-08-11T10:42:06.198Z,545.20
2022-08-11T10:44:39.796Z,590.50
2022-08-11T10:47:26.743Z,488.83
2022-08-11T10:50:10.887Z,547.90
2022-08-11T10:52:58.966Z,565.77
2022-08-11T10:55:45.422Z,469.30
2022-08-11T10:58:31.612Z,551.77
2022-08-11T11:01:01.017Z,611.83
2022-08-11T11:03:34.500Z,504.13
2022-08-11T11:06:12.779Z,467.23
2022-08-11T11:09:04.453Z,597.63
2022-08-11T11:11:54.890Z,489.83
2022-08-11T11:14:59.156Z,551.07
2022-08-11T11:17:48.821Z,522.77
2022-08-11T11:20:36.728Z,545.93
2022-08-11T11:23:09.186Z,589.90
2022-08-11T11:26:09.918Z,519.93
2022-08-11T11:29:14.336Z,543.27
2022-08-11T11:31:55.320Z,535.53
2022-08-11T11:34:37.758Z,563.70
2022-08-11T11:37:21.970Z,560.17
2022-08-11T11:39:50.522Z,542.90
2022-08-11T11:42:21.339Z,572.80
2022-08-11T11:44:49.724Z,585.37
2022-08-11T11:47:21.739Z,643.03
2022-08-11T11:49:51.251Z,539.23
2022-08-11T11:52:22.056Z,586.53
2022-08-11T11:54:53.384Z,575.73
2022-08-11T11:57:41.567Z,550.47
2022-08-11T12:00:44.665Z,606.33
2022-08-11T12:03:13.563Z,592.50
2022-08-11T12:05:44.439Z,573.50
2022-08-11T12:08:17.056Z,584.93
2022-08-11T12:10:47.811Z,617.90
2022-08-11T12:13:35.862Z,505.50
2022-08-11T12:16:34.932Z,500.77
2022-08-11T12:18:56.549Z,544.37
2022-08-11T12:21:25.401Z,581.67
2022-08-11T12:24:13.196Z,489.77
2022-08-11T12:27:16.626Z,507.07
2022-08-11T12:29:55.035Z,448.67
2022-08-11T12:32:26.423Z,510.43
2022-08-11T12:34:57.185Z,592.10
2022-08-11T12:37:30.599Z,391.10
2022-08-11T12:41:11.336Z,606.20
2022-08-11T12:43:38.570Z,574.63
2022-08-11T12:46:11.462Z,621.23
2022-08-11T12:49:04.053Z,509.20
2022-08-11T12:52:11.803Z,552.50
2022-08-11T12:54:51.422Z,482.67
2022-08-11T12:57:52.268Z,567.87
2022-08-11T13:00:39.145Z,525.13
2022-08-11T13:03:28.557Z,600.50
2022-08-11T13:05:58.763Z,517.60
2022-08-11T13:08:29.397Z,499.30
2022-08-11T13:11:17.829Z,584.43
2022-08-11T13:13:55.042Z,396.23
2022-08-11T13:16:29.001Z,595.73
2022-08-11T13:19:01.173Z,560.60
2022-08-11T13:21:30.106Z,493.27
2022-08-11T13:24:00.686Z,625.13
2022-08-11T13:26:47.443Z,488.20
2022-08-11T13:29:22.479Z,559.10
2022-08-11T13:31:51.545Z,493.90
2022-08-11T13:34:22.523Z,551.90
2022-08-11T13:36:53.110Z,459.13
2022-08-11T13:39:23.952Z,575.53
2022-08-11T13:41:56.462Z,516.20
2022-08-11T13:44:28.148Z,548.77
2022-08-11T13:46:58.743Z,518.20
2022-08-11T13:49:28.947Z,496.07
2022-08-11T13:51:57.851Z,509.90
2022-08-11T13:54:28.968Z,490.37
2022-08-11T13:57:00.890Z,632.90
2022-08-11T13:59:31.117Z,527.87
2022-08-11T14:02:22.186Z,572.00
2022-08-11T14:04:58.049Z,518.10
2022-08-11T14:07:34.526Z,455.20
2022-08-11T14:10:03.967Z,414.17
2022-08-11T14:12:53.174Z,500.60
2022-08-11T14:15:25.228Z,550.37
2022-08-11T14:17:57.167Z,426.17
2022-08-11T14:20:46.815Z,530.70
2022-08-11T14:23:15.743Z,516.83
2022-08-11T14:26:04.732Z,562.50
2022-08-11T14:28:41.687Z,517.10
2022-08-11T14:31:15.390Z,448.87
2022-08-11T14:34:00.850Z,592.73
2022-08-11T14:36:35.504Z,542.10
2022-08-11T14:39:06.893Z,568.93
2022-08-11T14:42:10.802Z,481.23
2022-08-11T14:45:01.935Z,462.87
2022-08-11T14:47:32.878Z,496.63
2022-08-11T14:50:11.887Z,623.27
2022-08-11T14:52:46.643Z,463.13
2022-08-11T14:55:33.589Z,598.03
2022-08-11T14:58:03.001Z,575.03
2022-08-11T15:00:32.175Z,576.33
2022-08-11T15:03:12.954Z,534.80
2022-08-11T15:05:57.398Z,551.27
2022-08-11T15:08:47.725Z,615.43
2022-08-11T15:11:35.897Z,557.47
2022-08-11T15:14:05.757Z,548.20
2022-08-11T15:16:51.713Z,406.70
2022-08-11T15:19:21.969Z,629.10
2022-08-11T15:22:07.819Z,576.60
2022-08-11T15:24:37.730Z,568.03
2022-08-11T15:27:27.524Z,532.17
2022-08-11T15:30:18.284Z,447.10
2022-08-11T15:33:24.339Z,466.90
2022-08-11T15:36:11.809Z,456.53
2022-08-11T15:38:45.594Z,557.37
2022-08-11T15:41:36.580Z,504.90
2022-08-11T15:44:51.481Z,518.50
2022-08-11T15:47:19.029Z,519.23
2022-08-11T15:50:11.245Z,547.10
2022-08-11T15:52:47.326Z,521.60
2022-08-11T15:55:16.859Z,559.77
2022-08-11T15:58:07.477Z,533.53
2022-08-11T16:00:58.865Z,578.97
2022-08-11T16:04:06.479Z,459.00
2022-08-11T16:06:40.537Z,509.00
2022-08-11T16:09:19.035Z,476.83
2022-08-11T16:11:49.288Z,562.60
2022-08-11T16:14:38.098Z,535.93
2022-08-11T16:17:08.274Z,500.67
2022-08-11T16:19:38.003Z,517.97
2022-08-11T16:22:09.619Z,528.53
2022-08-11T16:27:04.682Z,495.17
2022-08-11T16:27:36.254Z,392.90
2022-08-11T16:30:07.267Z,530.07
2022-08-11T16:32:37.467Z,417.03
2022-08-11T16:35:34.520Z,545.80
2022-08-11T16:38:21.491Z,523.40
2022-08-11T16:40:52.496Z,502.07
2022-08-11T16:43:40.769Z,513.57
2022-08-11T16:46:28.513Z,365.40
2022-08-11T16:48:57.822Z,499.67
2022-08-11T16:51:25.835Z,474.43
2022-08-11T16:54:04.381Z,534.50
2022-08-11T16:56:36.836Z,556.40
2022-08-11T16:59:14.963Z,476.70
2022-08-11T17:01:52.986Z,524.60
2022-08-11T17:04:55.062Z,526.47
2022-08-11T17:07:50.127Z,549.07
2022-08-11T17:10:52.527Z,539.37
2022-08-11T17:13:29.365Z,558.73
2022-08-11T17:16:12.573Z,536.83
2022-08-11T17:18:55.553Z,509.17
2022-08-11T17:21:29.797Z,467.50
2022-08-11T17:24:06.381Z,488.13
2022-08-11T17:26:57.078Z,536.30
2022-08-11T17:29:29.888Z,553.67
2022-08-11T17:32:16.327Z,502.50
2022-08-11T17:35:05.580Z,446.43
2022-08-11T17:37:35.520Z,472.07
2022-08-11T17:40:06.873Z,582.30
2022-08-11T17:42:54.153Z,607.37
2022-08-11T17:45:41.701Z,537.57
2022-08-11T17:48:27.194Z,526.27
2022-08-11T17:50:59.197Z,520.57
2022-08-11T17:54:10.127Z,489.97
2022-08-11T17:56:52.081Z,521.33
2022-08-11T17:59:37.980Z,532.33
2022-08-11T18:02:21.252Z,457.57
2022-08-11T18:05:03.137Z,476.37
2022-08-11T18:07:52.460Z,471.67
2022-08-11T18:10:40.236Z,439.43
2022-08-11T18:13:26.170Z,384.93
2022-08-11T18:16:11.858Z,527.53
2022-08-11T18:18:57.519Z,459.53
2022-08-11T18:21:46.557Z,442.73
2022-08-11T18:24:58.891Z,535.37
2022-08-11T18:27:46.515Z,506.73
2022-08-11T18:30:32.026Z,552.80
2022-08-11T18:33:56.772Z,508.10
2022-08-11T18:36:31.104Z,479.23
2022-08-11T18:39:19.299Z,582.60
2022-08-11T18:42:07.091Z,508.40
2022-08-11T18:44:54.675Z,467.83
2022-08-11T18:47:41.726Z,507.00
2022-08-11T18:50:38.694Z,634.40
2022-08-11T18:53:29.107Z,590.97
2022-08-11T18:56:16.203Z,553.37
2022-08-11T18:59:05.888Z,585.93
2022-08-11T19:01:53.788Z,13.47
2022-08-11T19:04:40.383Z,0.90
2022-08-11T19:07:27.747Z,1.10
2022-08-11T19:10:13.937Z,0.83
2022-08-11T19:13:01.679Z,1.00
2022-08-11T19:15:49.456Z,1.17
2022-08-11T19:18:40.339Z,1.50
2022-08-11T19:21:27.231Z,1.10
2022-08-11T19:24:17.359Z,1.00
2022-08-11T19:27:03.668Z,1.57
2022-08-11T19:30:07.244Z,1.40
2022-08-11T19:32:59.180Z,1.13
2022-08-11T19:35:45.307Z,1.00
2022-08-11T19:38:31.132Z,1.57
2022-08-11T19:41:51.800Z,1.23
2022-08-11T19:44:24.867Z,1.17
2022-08-11T19:47:11.571Z,1.00
2022-08-11T19:50:01.300Z,1.30
2022-08-11T19:52:48.299Z,1.43
2022-08-11T19:55:35.338Z,1.00
2022-08-11T19:58:21.699Z,1.10
2022-08-11T20:01:07.707Z,1.10
2022-08-11T20:03:53.093Z,1.30
2022-08-11T20:06:41.228Z,1.60
2022-08-11T20:09:28.101Z,1.30
2022-08-11T20:12:35.084Z,1.17
2022-08-11T20:15:21.851Z,1.40
2022-08-11T20:18:07.371Z,1.60
2022-08-11T20:20:53.760Z,1.03
2022-08-11T20:23:43.003Z,1.20
2022-08-11T20:26:31.173Z,1.00
2022-08-11T20:29:18.720Z,1.07
2022-08-11T20:32:06.655Z,1.10
2022-08-11T20:34:57.574Z,1.10
2022-08-11T20:37:50.251Z,1.33
2022-08-11T20:40:41.379Z,1.30
2022-08-11T20:44:07.591Z,1.40
2022-08-11T20:46:38.416Z,1.30
2022-08-11T20:49:42.297Z,1.20
2022-08-11T20:52:36.111Z,1.20
2022-08-11T20:55:26.045Z,1.47
2022-08-11T20:58:49.136Z,1.40
2022-08-11T21:01:38.867Z,1.47
2022-08-11T21:04:26.284Z,1.90
2022-08-11T21:07:12.685Z,1.30
2022-08-11T21:10:13.622Z,1.90
2022-08-11T21:13:26.043Z,1.63
2022-08-11T21:16:22.719Z,1.40
2022-08-11T21:19:16.578Z,1.47
2022-08-11T21:22:03.828Z,1.03
2022-08-11T21:24:51.775Z,1.50
2022-08-11T21:27:40.109Z,1.40
2022-08-11T21:30:27.023Z,1.30
2022-08-11T21:33:13.771Z,1.47
2022-08-11T21:36:00.515Z,1.33
2022-08-11T21:38:46.581Z,2.50
2022-08-11T21:41:34.276Z,1.30
2022-08-11T21:44:20.668Z,1.70
2022-08-11T21:47:07.128Z,1.60
2022-08-11T21:49:55.440Z,1.50
2022-08-11T21:52:41.514Z,1.10
2022-08-11T21:55:29.171Z,1.40
2022-08-11T21:58:16.141Z,1.57
2022-08-11T22:01:02.668Z,1.93
2022-08-11T22:03:49.663Z,1.47
2022-08-11T22:06:38.585Z,1.30
2022-08-11T22:09:24.047Z,1.60
2022-08-11T22:12:34.185Z,1.30
2022-08-11T22:15:15.993Z,1.53
2022-08-11T22:18:01.741Z,1.20
2022-08-11T22:20:49.223Z,1.63
2022-08-11T22:23:37.929Z,0.93
2022-08-11T22:26:25.709Z,1.30
2022-08-11T22:29:11.653Z,1.30
2022-08-11T22:31:59.106Z,1.50
2022-08-11T22:34:53.470Z,1.53
2022-08-11T22:37:40.638Z,1.20
2022-08-11T22:40:29.135Z,1.43
2022-08-11T22:43:15.065Z,1.50
2022-08-11T22:46:00.676Z,1.17
2022-08-11T22:48:48.660Z,1.40
2022-08-11T22:51:36.852Z,1.20
2022-08-11T22:54:23.320Z,1.30
2022-08-11T22:57:10.577Z,1.30
2022-08-11T22:59:57.547Z,1.20
2022-08-11T23:02:46.000Z,1.43
2022-08-11T23:05:32.778Z,1.10
2022-08-11T23:08:19.164Z,1.63
2022-08-11T23:11:05.665Z,1.30
2022-08-11T23:13:52.454Z,1.17
2022-08-11T23:16:39.556Z,1.50
2022-08-11T23:20:00.328Z,1.40
2022-08-11T23:22:43.754Z,1.10
2022-08-11T23:25:35.319Z,1.10
2022-08-11T23:28:22.233Z,1.77
2022-08-11T23:31:11.925Z,2.20
2022-08-11T23:34:00.499Z,1.20
2022-08-11T23:36:47.266Z,1.50
2022-08-11T23:39:33.788Z,2.10
2022-08-11T23:42:19.174Z,1.30
2022-08-11T23:45:05.638Z,1.40
2022-08-11T23:47:57.876Z,1.40
2022-08-11T23:50:44.321Z,1.40
2022-08-11T23:53:31.341Z,1.83
2022-08-11T23:56:17.272Z,1.30
2022-08-11T23:59:08.692Z,1.50
